createdAt,value
2016-06-13T00:00:17.918Z,0
2016-06-13T00:01:17.719Z,0
2016-06-13T00:02:17.582Z,0
2016-06-13T00:03:17.802Z,0
2016-06-13T00:04:17.758Z,0
2016-06-13T00:05:17.762Z,0
2016-06-13T00:06:17.875Z,0
2016-06-13T00:07:17.815Z,0
2016-06-13T00:08:18.052Z,0
2016-06-13T00:09:17.806Z,0
2016-06-13T00:10:17.824Z,0
2016-06-13T00:11:17.952Z,0
2016-06-13T00:12:17.846Z,0
2016-06-13T00:13:17.850Z,0
2016-06-13T00:14:17.852Z,0
2016-06-13T00:15:17.933Z,0
2016-06-13T00:16:17.749Z,0
2016-06-13T00:17:17.971Z,0
2016-06-13T00:18:18.646Z,0
2016-06-13T00:19:17.976Z,0
2016-06-13T00:20:17.949Z,0
2016-06-13T00:21:17.936Z,0
2016-06-13T00:22:17.939Z,0
2016-06-13T00:23:18.271Z,0
2016-06-13T00:24:17.978Z,0
2016-06-13T00:25:17.995Z,0
2016-06-13T00:26:18.358Z,0
2016-06-13T00:27:18.001Z,0
2016-06-13T00:28:18.004Z,0
2016-06-13T00:29:18.024Z,0
2016-06-13T00:30:18.026Z,0
2016-06-13T00:31:18.138Z,0
2016-06-13T00:32:18.220Z,0
2016-06-13T00:33:18.083Z,0
2016-06-13T00:34:18.086Z,0
2016-06-13T00:35:18.120Z,0
2016-06-13T00:36:18.092Z,0
2016-06-13T00:37:18.110Z,0
2016-06-13T00:38:18.129Z,0
2016-06-13T00:39:18.382Z,0
2016-06-13T00:40:18.292Z,0
2016-06-13T00:41:18.622Z,0
2016-06-13T00:42:18.172Z,0
2016-06-13T00:43:18.192Z,0
2016-06-13T00:44:18.179Z,0
2016-06-13T00:45:18.400Z,0
2016-06-13T00:46:18.560Z,0
2016-06-13T00:47:18.062Z,0
2016-06-13T00:48:18.269Z,0
2016-06-13T00:49:18.226Z,0
2016-06-13T00:50:18.260Z,0
2016-06-13T00:51:18.403Z,0
2016-06-13T00:52:18.266Z,0
2016-06-13T00:53:18.284Z,0
2016-06-13T00:54:18.695Z,0
2016-06-13T00:55:18.494Z,0
2016-06-13T00:56:18.623Z,0
2016-06-13T00:57:18.469Z,0
2016-06-13T00:58:18.332Z,0
2016-06-13T00:59:18.335Z,0
2016-06-13T01:00:18.353Z,0
2016-06-13T01:01:18.450Z,0
2016-06-13T01:02:18.641Z,0
2016-06-13T01:03:18.394Z,0
2016-06-13T01:04:18.412Z,0
2016-06-13T01:05:18.447Z,0
2016-06-13T01:06:18.278Z,0
2016-06-13T01:07:18.468Z,0
2016-06-13T01:08:18.347Z,0
2016-06-13T01:09:18.443Z,0
2016-06-13T01:10:18.446Z,0
2016-06-13T01:11:18.558Z,0
2016-06-13T01:12:18.672Z,0
2016-06-13T01:13:18.487Z,0
2016-06-13T01:14:18.677Z,0
2016-06-13T01:15:18.352Z,0
2016-06-13T01:16:18.215Z,0
2016-06-13T01:17:18.546Z,0
2016-06-13T01:18:18.643Z,0
2016-06-13T01:19:18.552Z,0
2016-06-13T01:20:18.555Z,0
2016-06-13T01:21:18.574Z,0
2016-06-13T01:22:18.781Z,0
2016-06-13T01:23:18.596Z,0
2016-06-13T01:24:18.598Z,0
2016-06-13T01:25:18.617Z,0
2016-06-13T01:26:19.339Z,0
2016-06-13T01:27:18.671Z,0
2016-06-13T01:28:18.658Z,0
2016-06-13T01:29:18.661Z,0
2016-06-13T01:30:18.773Z,0
2016-06-13T01:31:18.698Z,0
2016-06-13T01:32:18.686Z,0
2016-06-13T01:33:18.720Z,0
2016-06-13T01:34:18.708Z,0
2016-06-13T01:35:18.726Z,0
2016-06-13T01:36:18.745Z,0
2016-06-13T01:37:18.749Z,0
2016-06-13T01:38:18.767Z,0
2016-06-13T01:39:18.770Z,0
2016-06-13T01:40:18.788Z,0
2016-06-13T01:41:18.792Z,0
2016-06-13T01:42:18.795Z,0
2016-06-13T01:43:18.813Z,0
2016-06-13T01:44:18.816Z,0
2016-06-13T01:45:18.836Z,0
2016-06-13T01:46:18.885Z,0
2016-06-13T01:47:18.857Z,0
2016-06-13T01:48:18.891Z,0
2016-06-13T01:49:18.863Z,0
2016-06-13T01:50:18.882Z,0
2016-06-13T01:51:18.884Z,0
2016-06-13T01:52:18.919Z,0
2016-06-13T01:53:18.922Z,0
2016-06-13T01:54:18.926Z,0
2016-06-13T01:55:18.787Z,0
2016-06-13T01:56:19.744Z,0
2016-06-13T01:57:18.950Z,0
2016-06-13T01:58:18.969Z,0
2016-06-13T01:59:18.987Z,0
2016-06-13T02:00:18.990Z,0
2016-06-13T02:01:19.010Z,0
2016-06-13T02:02:19.028Z,0
2016-06-13T02:03:19.031Z,0
2016-06-13T02:04:19.050Z,0
2016-06-13T02:05:19.037Z,0
2016-06-13T02:06:19.056Z,0
2016-06-13T02:07:18.903Z,0
2016-06-13T02:08:19.077Z,0
2016-06-13T02:09:19.112Z,0
2016-06-13T02:10:19.100Z,0
2016-06-13T02:11:18.993Z,0
2016-06-13T02:12:19.121Z,0
2016-06-13T02:13:19.140Z,0
2016-06-13T02:14:19.143Z,0
2016-06-13T02:15:19.147Z,0
2016-06-13T02:16:19.164Z,0
2016-06-13T02:17:19.167Z,0
2016-06-13T02:18:19.186Z,0
2016-06-13T02:19:19.206Z,0
2016-06-13T02:20:19.209Z,0
2016-06-13T02:21:19.227Z,0
2016-06-13T02:22:19.215Z,0
2016-06-13T02:23:19.249Z,0
2016-06-13T02:24:19.252Z,0
2016-06-13T02:25:19.255Z,0
2016-06-13T02:26:19.602Z,0
2016-06-13T02:27:19.136Z,0
2016-06-13T02:28:19.295Z,0
2016-06-13T02:29:19.299Z,0
2016-06-13T02:30:19.317Z,0
2016-06-13T02:31:19.180Z,0
2016-06-13T02:32:19.339Z,0
2016-06-13T02:33:19.342Z,0
2016-06-13T02:34:19.360Z,0
2016-06-13T02:35:19.364Z,0
2016-06-13T02:36:19.383Z,0
2016-06-13T02:37:19.386Z,0
2016-06-13T02:38:19.389Z,0
2016-06-13T02:39:19.407Z,0
2016-06-13T02:40:19.426Z,0
2016-06-13T02:41:19.429Z,0
2016-06-13T02:42:19.448Z,0
2016-06-13T02:43:19.452Z,0
2016-06-13T02:44:19.455Z,0
2016-06-13T02:45:19.472Z,0
2016-06-13T02:46:19.539Z,0
2016-06-13T02:47:19.495Z,0
2016-06-13T02:48:19.498Z,0
2016-06-13T02:49:19.500Z,0
2016-06-13T02:50:19.518Z,0
2016-06-13T02:51:19.538Z,0
2016-06-13T02:52:19.541Z,0
2016-06-13T02:53:19.403Z,0
2016-06-13T02:54:19.578Z,0
2016-06-13T02:55:19.582Z,0
2016-06-13T02:56:19.553Z,0
2016-06-13T02:57:19.603Z,0
2016-06-13T02:58:19.607Z,0
2016-06-13T02:59:19.626Z,0
2016-06-13T03:00:19.472Z,0
2016-06-13T03:01:19.646Z,0
2016-06-13T03:02:19.650Z,0
2016-06-13T03:03:19.653Z,0
2016-06-13T03:04:19.672Z,0
2016-06-13T03:05:19.690Z,0
2016-06-13T03:06:19.693Z,0
2016-06-13T03:07:19.712Z,0
2016-06-13T03:08:19.716Z,0
2016-06-13T03:09:19.734Z,0
2016-06-13T03:10:19.737Z,0
2016-06-13T03:11:20.288Z,0
2016-06-13T03:12:19.759Z,0
2016-06-13T03:13:19.761Z,0
2016-06-13T03:14:19.625Z,0
2016-06-13T03:15:19.815Z,0
2016-06-13T03:16:19.786Z,0
2016-06-13T03:17:19.806Z,0
2016-06-13T03:18:19.809Z,0
2016-06-13T03:19:19.843Z,0
2016-06-13T03:20:19.861Z,0
2016-06-13T03:21:19.865Z,0
2016-06-13T03:22:19.867Z,0
2016-06-13T03:23:19.870Z,0
2016-06-13T03:24:19.889Z,0
2016-06-13T03:25:19.909Z,0
2016-06-13T03:26:19.911Z,0
2016-06-13T03:27:19.951Z,0
2016-06-13T03:28:19.823Z,0
2016-06-13T03:29:20.038Z,0
2016-06-13T03:30:20.098Z,0
2016-06-13T03:31:20.157Z,0
2016-06-13T03:32:20.187Z,0
2016-06-13T03:33:20.203Z,0
2016-06-13T03:34:20.221Z,0
2016-06-13T03:35:20.253Z,0
2016-06-13T03:36:20.271Z,0
2016-06-13T03:37:20.299Z,0
2016-06-13T03:38:20.307Z,0
2016-06-13T03:39:20.331Z,0
2016-06-13T03:40:20.355Z,0
2016-06-13T03:41:20.708Z,0
2016-06-13T03:42:20.292Z,0
2016-06-13T03:43:20.391Z,0
2016-06-13T03:44:20.411Z,0
2016-06-13T03:45:20.416Z,0
2016-06-13T03:46:20.437Z,0
2016-06-13T03:47:20.442Z,0
2016-06-13T03:48:20.462Z,0
2016-06-13T03:49:20.465Z,0
2016-06-13T03:50:20.484Z,0
2016-06-13T03:51:20.488Z,0
2016-06-13T03:52:20.492Z,0
2016-06-13T03:53:20.494Z,0
2016-06-13T03:54:20.514Z,0
2016-06-13T03:55:20.531Z,0
2016-06-13T03:56:21.410Z,0
2016-06-13T03:57:21.038Z,0
2016-06-13T03:58:20.557Z,0
2016-06-13T03:59:20.560Z,0
2016-06-13T04:00:20.579Z,0
2016-06-13T04:01:20.582Z,0
2016-06-13T04:02:20.600Z,4
2016-06-13T04:03:20.620Z,4
2016-06-13T04:04:20.622Z,4
2016-06-13T04:05:20.485Z,4
2016-06-13T04:06:20.644Z,0
2016-06-13T04:07:20.648Z,0
2016-06-13T04:08:20.510Z,0
2016-06-13T04:09:20.668Z,4
2016-06-13T04:10:20.688Z,4
2016-06-13T04:11:20.706Z,4
2016-06-13T04:12:20.709Z,4
2016-06-13T04:13:20.728Z,4
2016-06-13T04:14:20.575Z,0
2016-06-13T04:15:20.750Z,0
2016-06-13T04:16:20.754Z,0
2016-06-13T04:17:20.756Z,4
2016-06-13T04:18:20.774Z,4
2016-06-13T04:19:20.778Z,4
2016-06-13T04:20:20.797Z,4
2016-06-13T04:21:20.815Z,4
2016-06-13T04:22:20.802Z,4
2016-06-13T04:23:20.836Z,4
2016-06-13T04:24:20.856Z,4
2016-06-13T04:25:20.843Z,4
2016-06-13T04:26:21.439Z,4
2016-06-13T04:27:22.224Z,4
2016-06-13T04:28:20.868Z,8
2016-06-13T04:29:20.902Z,8
2016-06-13T04:30:20.749Z,4
2016-06-13T04:31:21.206Z,4
2016-06-13T04:32:21.161Z,4
2016-06-13T04:33:20.930Z,4
2016-06-13T04:34:20.964Z,4
2016-06-13T04:35:20.951Z,4
2016-06-13T04:36:20.971Z,4
2016-06-13T04:37:20.973Z,4
2016-06-13T04:38:20.977Z,4
2016-06-13T04:39:21.199Z,4
2016-06-13T04:40:20.999Z,4
2016-06-13T04:41:21.033Z,4
2016-06-13T04:42:21.380Z,4
2016-06-13T04:43:21.054Z,8
2016-06-13T04:44:21.043Z,8
2016-06-13T04:45:21.060Z,8
2016-06-13T04:46:20.892Z,8
2016-06-13T04:47:21.380Z,8
2016-06-13T04:48:21.335Z,4
2016-06-13T04:49:21.119Z,4
2016-06-13T04:50:21.107Z,4
2016-06-13T04:51:21.204Z,4
2016-06-13T04:52:21.332Z,4
2016-06-13T04:53:21.148Z,4
2016-06-13T04:54:21.198Z,4
2016-06-13T04:55:21.357Z,4
2016-06-13T04:56:21.282Z,4
2016-06-13T04:57:22.130Z,4
2016-06-13T04:58:21.351Z,4
2016-06-13T04:59:21.213Z,4
2016-06-13T05:00:21.200Z,4
2016-06-13T05:01:21.251Z,4
2016-06-13T05:02:21.551Z,8
2016-06-13T05:03:21.257Z,8
2016-06-13T05:04:21.307Z,8
2016-06-13T05:05:21.278Z,8
2016-06-13T05:06:21.282Z,8
2016-06-13T05:07:21.394Z,8
2016-06-13T05:08:21.303Z,8
2016-06-13T05:09:21.322Z,8
2016-06-13T05:10:21.669Z,4
2016-06-13T05:11:21.328Z,4
2016-06-13T05:12:21.362Z,4
2016-06-13T05:13:21.381Z,4
2016-06-13T05:14:21.635Z,4
2016-06-13T05:15:21.372Z,4
2016-06-13T05:16:21.390Z,4
2016-06-13T05:17:21.238Z,4
2016-06-13T05:18:21.428Z,4
2016-06-13T05:19:21.415Z,4
2016-06-13T05:20:21.481Z,4
2016-06-13T05:21:21.437Z,8
2016-06-13T05:22:21.440Z,4
2016-06-13T05:23:21.443Z,4
2016-06-13T05:24:21.665Z,4
2016-06-13T05:25:21.527Z,4
2016-06-13T05:26:21.516Z,4
2016-06-13T05:27:21.519Z,4
2016-06-13T05:28:21.521Z,4
2016-06-13T05:29:21.836Z,4
2016-06-13T05:30:21.528Z,4
2016-06-13T05:31:21.640Z,4
2016-06-13T05:32:21.549Z,4
2016-06-13T05:33:21.568Z,8
2016-06-13T05:34:21.430Z,8
2016-06-13T05:35:21.902Z,8
2016-06-13T05:36:21.639Z,8
2016-06-13T05:37:21.595Z,8
2016-06-13T05:38:21.630Z,4
2016-06-13T05:39:21.789Z,4
2016-06-13T05:40:21.636Z,4
2016-06-13T05:41:21.951Z,4
2016-06-13T05:42:21.893Z,4
2016-06-13T05:43:21.911Z,4
2016-06-13T05:44:21.992Z,4
2016-06-13T05:45:21.683Z,4
2016-06-13T05:46:22.061Z,8
2016-06-13T05:47:21.720Z,8
2016-06-13T05:48:21.723Z,8
2016-06-13T05:49:21.836Z,8
2016-06-13T05:50:21.589Z,4
2016-06-13T05:51:21.748Z,8
2016-06-13T05:52:21.970Z,8
2016-06-13T05:53:21.785Z,8
2016-06-13T05:54:21.789Z,12
2016-06-13T05:55:21.995Z,12
2016-06-13T05:56:21.919Z,8
2016-06-13T05:57:22.532Z,8
2016-06-13T05:58:22.035Z,8
2016-06-13T05:59:21.679Z,8
2016-06-13T06:00:21.854Z,8
2016-06-13T06:01:21.965Z,12
2016-06-13T06:02:21.876Z,12
2016-06-13T06:03:21.738Z,12
2016-06-13T06:04:21.897Z,8
2016-06-13T06:05:21.916Z,8
2016-06-13T06:06:21.920Z,8
2016-06-13T06:07:21.984Z,12
2016-06-13T06:08:21.940Z,12
2016-06-13T06:09:21.787Z,12
2016-06-13T06:10:22.166Z,20
2016-06-13T06:11:21.982Z,20
2016-06-13T06:12:21.843Z,20
2016-06-13T06:13:22.003Z,24
2016-06-13T06:14:22.006Z,24
2016-06-13T06:15:22.009Z,20
2016-06-13T06:16:21.856Z,20
2016-06-13T06:17:22.031Z,16
2016-06-13T06:18:22.034Z,16
2016-06-13T06:19:22.053Z,20
2016-06-13T06:20:22.071Z,20
2016-06-13T06:21:22.074Z,20
2016-06-13T06:22:22.077Z,20
2016-06-13T06:23:22.112Z,20
2016-06-13T06:24:22.115Z,20
2016-06-13T06:25:22.117Z,24
2016-06-13T06:26:22.137Z,24
2016-06-13T06:27:22.499Z,28
2016-06-13T06:28:22.159Z,28
2016-06-13T06:29:22.162Z,32
2016-06-13T06:30:22.165Z,28
2016-06-13T06:31:22.183Z,28
2016-06-13T06:32:22.186Z,28
2016-06-13T06:33:22.049Z,28
2016-06-13T06:34:22.209Z,28
2016-06-13T06:35:22.228Z,32
2016-06-13T06:36:22.246Z,28
2016-06-13T06:37:22.248Z,28
2016-06-13T06:38:22.251Z,28
2016-06-13T06:39:22.271Z,28
2016-06-13T06:40:22.289Z,28
2016-06-13T06:41:22.292Z,28
2016-06-13T06:42:22.717Z,32
2016-06-13T06:43:22.314Z,32
2016-06-13T06:44:22.176Z,36
2016-06-13T06:45:22.336Z,36
2016-06-13T06:46:22.182Z,40
2016-06-13T06:47:22.405Z,40
2016-06-13T06:48:22.360Z,44
2016-06-13T06:49:22.380Z,40
2016-06-13T06:50:22.382Z,44
2016-06-13T06:51:22.245Z,36
2016-06-13T06:52:22.420Z,36
2016-06-13T06:53:22.423Z,36
2016-06-13T06:54:22.442Z,36
2016-06-13T06:55:22.428Z,36
2016-06-13T06:56:22.448Z,32
2016-06-13T06:57:22.482Z,32
2016-06-13T06:58:22.469Z,36
2016-06-13T06:59:22.488Z,24
2016-06-13T07:00:22.491Z,40
2016-06-13T07:01:22.526Z,40
2016-06-13T07:02:22.528Z,36
2016-06-13T07:03:22.531Z,40
2016-06-13T07:04:22.535Z,40
2016-06-13T07:05:22.554Z,44
2016-06-13T07:06:22.573Z,48
2016-06-13T07:07:22.576Z,52
2016-06-13T07:08:22.610Z,56
2016-06-13T07:09:22.628Z,60
2016-06-13T07:10:22.600Z,60
2016-06-13T07:11:22.634Z,56
2016-06-13T07:12:22.856Z,52
2016-06-13T07:13:22.640Z,52
2016-06-13T07:14:22.644Z,48
2016-06-13T07:15:22.490Z,40
2016-06-13T07:16:22.666Z,36
2016-06-13T07:17:22.669Z,40
2016-06-13T07:18:22.672Z,36
2016-06-13T07:19:22.691Z,40
2016-06-13T07:20:22.693Z,40
2016-06-13T07:21:22.712Z,44
2016-06-13T07:22:22.715Z,40
2016-06-13T07:23:22.718Z,40
2016-06-13T07:24:22.721Z,40
2016-06-13T07:25:22.757Z,36
2016-06-13T07:26:22.759Z,36
2016-06-13T07:27:23.433Z,36
2016-06-13T07:28:23.187Z,36
2016-06-13T07:29:22.784Z,36
2016-06-13T07:30:22.786Z,36
2016-06-13T07:31:22.789Z,36
2016-06-13T07:32:22.823Z,36
2016-06-13T07:33:22.812Z,36
2016-06-13T07:34:22.829Z,40
2016-06-13T07:35:22.833Z,40
2016-06-13T07:36:22.852Z,40
2016-06-13T07:37:22.855Z,36
2016-06-13T07:38:22.858Z,32
2016-06-13T07:39:22.877Z,24
2016-06-13T07:40:22.880Z,12
2016-06-13T07:41:22.884Z,16
2016-06-13T07:42:22.979Z,16
2016-06-13T07:43:22.874Z,24
2016-06-13T07:44:22.768Z,28
2016-06-13T07:45:22.926Z,24
2016-06-13T07:46:22.788Z,28
2016-06-13T07:47:22.995Z,28
2016-06-13T07:48:22.952Z,32
2016-06-13T07:49:22.955Z,32
2016-06-13T07:50:22.973Z,32
2016-06-13T07:51:22.976Z,32
2016-06-13T07:52:22.995Z,36
2016-06-13T07:53:22.843Z,36
2016-06-13T07:54:23.001Z,40
2016-06-13T07:55:22.723Z,48
2016-06-13T07:56:23.039Z,52
2016-06-13T07:57:23.542Z,56
2016-06-13T07:58:23.185Z,52
2016-06-13T07:59:22.892Z,56
2016-06-13T08:00:22.910Z,56
2016-06-13T08:01:23.070Z,60
2016-06-13T08:02:23.073Z,68
2016-06-13T08:03:22.935Z,64
2016-06-13T08:04:23.094Z,60
2016-06-13T08:05:23.097Z,60
2016-06-13T08:06:23.100Z,56
2016-06-13T08:07:23.103Z,60
2016-06-13T08:08:23.122Z,56
2016-06-13T08:09:23.173Z,48
2016-06-13T08:10:23.144Z,48
2016-06-13T08:11:23.162Z,48
2016-06-13T08:12:23.916Z,48
2016-06-13T08:13:23.404Z,44
2016-06-13T08:14:23.171Z,40
2016-06-13T08:15:23.191Z,44
2016-06-13T08:16:23.193Z,40
2016-06-13T08:17:23.197Z,36
2016-06-13T08:18:23.200Z,40
2016-06-13T08:19:23.218Z,40
2016-06-13T08:20:23.237Z,36
2016-06-13T08:21:23.241Z,40
2016-06-13T08:22:23.259Z,40
2016-06-13T08:23:23.263Z,36
2016-06-13T08:24:23.108Z,44
2016-06-13T08:25:23.283Z,44
2016-06-13T08:26:23.131Z,44
2016-06-13T08:27:24.478Z,48
2016-06-13T08:28:23.308Z,44
2016-06-13T08:29:23.343Z,44
2016-06-13T08:30:23.331Z,40
2016-06-13T08:31:23.349Z,40
2016-06-13T08:32:23.352Z,36
2016-06-13T08:33:23.355Z,40
2016-06-13T08:34:23.358Z,40
2016-06-13T08:35:23.377Z,40
2016-06-13T08:36:23.240Z,40
2016-06-13T08:37:23.399Z,44
2016-06-13T08:38:23.418Z,44
2016-06-13T08:39:23.420Z,48
2016-06-13T08:40:23.283Z,52
2016-06-13T08:41:23.443Z,52
2016-06-13T08:42:23.617Z,52
2016-06-13T08:43:23.902Z,52
2016-06-13T08:44:23.467Z,56
2016-06-13T08:45:23.502Z,60
2016-06-13T08:46:23.505Z,60
2016-06-13T08:47:23.492Z,60
2016-06-13T08:48:23.526Z,56
2016-06-13T08:49:23.546Z,56
2016-06-13T08:50:23.548Z,48
2016-06-13T08:51:23.551Z,48
2016-06-13T08:52:23.555Z,44
2016-06-13T08:53:23.573Z,44
2016-06-13T08:54:23.591Z,32
2016-06-13T08:55:23.579Z,32
2016-06-13T08:56:23.457Z,32
2016-06-13T08:57:23.617Z,36
2016-06-13T08:58:23.651Z,40
2016-06-13T08:59:23.638Z,44
2016-06-13T09:00:23.641Z,52
2016-06-13T09:01:23.661Z,44
2016-06-13T09:02:23.663Z,40
2016-06-13T09:03:23.682Z,36
2016-06-13T09:04:23.685Z,36
2016-06-13T09:05:23.689Z,32
2016-06-13T09:06:23.706Z,28
2016-06-13T09:07:23.710Z,28
2016-06-13T09:08:23.760Z,12
2016-06-13T09:09:23.732Z,12
2016-06-13T09:10:23.750Z,16
2016-06-13T09:11:23.752Z,16
2016-06-13T09:12:23.772Z,20
2016-06-13T09:13:23.666Z,24
2016-06-13T09:14:23.794Z,32
2016-06-13T09:15:23.828Z,32
2016-06-13T09:16:23.816Z,36
2016-06-13T09:17:23.818Z,36
2016-06-13T09:18:23.681Z,36
2016-06-13T09:19:23.857Z,36
2016-06-13T09:20:23.860Z,36
2016-06-13T09:21:23.862Z,40
2016-06-13T09:22:23.866Z,48
2016-06-13T09:23:23.884Z,48
2016-06-13T09:24:23.902Z,52
2016-06-13T09:25:23.906Z,56
2016-06-13T09:26:24.174Z,56
2016-06-13T09:27:23.943Z,60
2016-06-13T09:28:25.321Z,56
2016-06-13T09:29:23.950Z,52
2016-06-13T09:30:23.968Z,52
2016-06-13T09:31:23.971Z,52
2016-06-13T09:32:24.006Z,48
2016-06-13T09:33:24.009Z,48
2016-06-13T09:34:23.856Z,40
2016-06-13T09:35:24.046Z,32
2016-06-13T09:36:24.033Z,28
2016-06-13T09:37:24.052Z,24
2016-06-13T09:38:24.071Z,28
2016-06-13T09:39:24.308Z,24
2016-06-13T09:40:24.077Z,20
2016-06-13T09:41:24.439Z,24
2016-06-13T09:42:24.114Z,28
2016-06-13T09:43:24.337Z,32
2016-06-13T09:44:24.121Z,40
2016-06-13T09:45:24.123Z,48
2016-06-13T09:46:24.439Z,44
2016-06-13T09:47:24.161Z,44
2016-06-13T09:48:24.164Z,44
2016-06-13T09:49:24.135Z,44
2016-06-13T09:50:24.342Z,48
2016-06-13T09:51:24.205Z,52
2016-06-13T09:52:24.208Z,52
2016-06-13T09:53:24.570Z,56
2016-06-13T09:54:24.245Z,56
2016-06-13T09:55:24.389Z,56
2016-06-13T09:56:24.126Z,60
2016-06-13T09:57:24.269Z,60
2016-06-13T09:58:24.836Z,64
2016-06-13T09:59:24.307Z,64
2016-06-13T10:00:24.607Z,64
2016-06-13T10:01:24.313Z,64
2016-06-13T10:02:24.160Z,64
2016-06-13T10:03:24.460Z,64
2016-06-13T10:04:24.369Z,60
2016-06-13T10:05:24.466Z,60
2016-06-13T10:06:24.391Z,60
2016-06-13T10:07:24.535Z,56
2016-06-13T10:08:24.757Z,52
2016-06-13T10:09:24.432Z,52
2016-06-13T10:10:24.434Z,52
2016-06-13T10:11:24.437Z,48
2016-06-13T10:12:24.457Z,44
2016-06-13T10:13:24.804Z,44
2016-06-13T10:14:24.478Z,44
2016-06-13T10:15:24.543Z,44
2016-06-13T10:16:24.516Z,44
2016-06-13T10:17:24.503Z,40
2016-06-13T10:18:24.522Z,40
2016-06-13T10:19:24.555Z,36
2016-06-13T10:20:38.684Z,36
2016-06-13T10:21:24.547Z,36
2016-06-13T10:22:24.565Z,40
2016-06-13T10:23:24.615Z,40
2016-06-13T10:24:24.572Z,44
2016-06-13T10:25:24.590Z,44
2016-06-13T10:26:24.640Z,44
2016-06-13T10:27:24.658Z,48
2016-06-13T10:28:25.037Z,48
2016-06-13T10:29:24.900Z,44
2016-06-13T10:30:24.652Z,44
2016-06-13T10:31:24.656Z,48
2016-06-13T10:32:24.674Z,48
2016-06-13T10:33:24.677Z,44
2016-06-13T10:34:24.696Z,44
2016-06-13T10:35:24.731Z,44
2016-06-13T10:36:24.561Z,44
2016-06-13T10:37:24.736Z,44
2016-06-13T10:38:24.755Z,48
2016-06-13T10:39:24.945Z,48
2016-06-13T10:40:24.745Z,48
2016-06-13T10:41:25.077Z,48
2016-06-13T10:42:24.799Z,48
2016-06-13T10:43:25.911Z,48
2016-06-13T10:44:24.820Z,52
2016-06-13T10:45:25.089Z,60
2016-06-13T10:46:24.858Z,64
2016-06-13T10:47:24.986Z,60
2016-06-13T10:48:24.911Z,64
2016-06-13T10:49:24.867Z,64
2016-06-13T10:50:25.167Z,64
2016-06-13T10:51:24.904Z,60
2016-06-13T10:52:25.220Z,60
2016-06-13T10:53:24.926Z,64
2016-06-13T10:54:24.929Z,60
2016-06-13T10:55:25.152Z,64
2016-06-13T10:56:24.951Z,64
2016-06-13T10:57:25.126Z,80
2016-06-13T10:58:25.676Z,80
2016-06-13T10:59:25.007Z,84
2016-06-13T11:00:24.995Z,68
2016-06-13T11:01:39.154Z,68
2016-06-13T11:02:25.032Z,72
2016-06-13T11:03:25.160Z,60
2016-06-13T11:04:25.022Z,68
2016-06-13T11:05:25.213Z,40
2016-06-13T11:06:25.076Z,44
2016-06-13T11:07:25.110Z,36
2016-06-13T11:08:25.238Z,36
2016-06-13T11:09:25.116Z,32
2016-06-13T11:10:25.104Z,32
2016-06-13T11:11:25.122Z,28
2016-06-13T11:12:25.125Z,32
2016-06-13T11:13:24.988Z,40
2016-06-13T11:14:25.163Z,44
2016-06-13T11:15:25.478Z,44
2016-06-13T11:16:25.169Z,40
2016-06-13T11:17:25.203Z,44
2016-06-13T11:18:25.190Z,36
2016-06-13T11:19:25.225Z,36
2016-06-13T11:20:25.229Z,32
2016-06-13T11:21:25.232Z,28
2016-06-13T11:22:25.219Z,36
2016-06-13T11:23:25.080Z,44
2016-06-13T11:24:25.272Z,60
2016-06-13T11:25:25.119Z,76
2016-06-13T11:26:25.278Z,64
2016-06-13T11:27:25.296Z,64
2016-06-13T11:28:25.503Z,84
2016-06-13T11:29:25.334Z,76
2016-06-13T11:30:29.024Z,72
2016-06-13T11:31:25.183Z,72
2016-06-13T11:32:25.343Z,76
2016-06-13T11:33:25.377Z,60
2016-06-13T11:34:25.365Z,60
2016-06-13T11:35:25.400Z,64
2016-06-13T11:36:25.403Z,64
2016-06-13T11:37:25.390Z,68
2016-06-13T11:38:25.393Z,72
2016-06-13T11:39:25.412Z,80
2016-06-13T11:40:25.446Z,84
2016-06-13T11:41:25.464Z,108
2016-06-13T11:42:25.452Z,92
2016-06-13T11:43:25.455Z,100
2016-06-13T11:44:25.506Z,80
2016-06-13T11:45:25.477Z,72
2016-06-13T11:46:25.495Z,72
2016-06-13T11:47:25.482Z,76
2016-06-13T11:48:25.532Z,80
2016-06-13T11:49:25.551Z,92
2016-06-13T11:50:25.554Z,76
2016-06-13T11:51:25.542Z,80
2016-06-13T11:52:25.577Z,84
2016-06-13T11:53:25.423Z,88
2016-06-13T11:54:25.583Z,104
2016-06-13T11:55:25.586Z,96
2016-06-13T11:56:25.620Z,92
2016-06-13T11:57:25.639Z,84
2016-06-13T11:58:25.673Z,88
2016-06-13T11:59:25.660Z,96
2016-06-13T12:00:25.663Z,92
2016-06-13T12:01:25.651Z,84
2016-06-13T12:02:25.686Z,92
2016-06-13T12:03:25.672Z,92
2016-06-13T12:04:25.707Z,84
2016-06-13T12:05:25.725Z,80
2016-06-13T12:06:25.728Z,68
2016-06-13T12:07:25.748Z,56
2016-06-13T12:08:25.766Z,44
2016-06-13T12:09:25.754Z,40
2016-06-13T12:10:25.772Z,40
2016-06-13T12:11:25.775Z,32
2016-06-13T12:12:25.794Z,32
2016-06-13T12:13:27.234Z,36
2016-06-13T12:14:26.003Z,44
2016-06-13T12:15:25.819Z,44
2016-06-13T12:16:25.696Z,40
2016-06-13T12:17:25.856Z,32
2016-06-13T12:18:25.860Z,40
2016-06-13T12:19:25.894Z,44
2016-06-13T12:20:25.881Z,48
2016-06-13T12:21:25.916Z,56
2016-06-13T12:22:25.747Z,60
2016-06-13T12:23:25.781Z,64
2016-06-13T12:24:25.940Z,68
2016-06-13T12:25:25.944Z,76
2016-06-13T12:26:25.946Z,92
2016-06-13T12:27:25.949Z,100
2016-06-13T12:28:26.016Z,76
2016-06-13T12:29:27.222Z,96
2016-06-13T12:30:26.022Z,100
2016-06-13T12:31:26.024Z,100
2016-06-13T12:32:26.043Z,100
2016-06-13T12:33:26.077Z,100
2016-06-13T12:34:26.121Z,68
2016-06-13T12:35:26.165Z,76
2016-06-13T12:36:26.224Z,48
2016-06-13T12:37:26.268Z,40
2016-06-13T12:38:26.307Z,36
2016-06-13T12:39:26.325Z,36
2016-06-13T12:40:26.358Z,48
2016-06-13T12:41:26.392Z,68
2016-06-13T12:42:26.410Z,76
2016-06-13T12:43:28.498Z,80
2016-06-13T12:44:26.693Z,104
2016-06-13T12:45:26.467Z,88
2016-06-13T12:46:26.475Z,84
2016-06-13T12:47:26.530Z,84
2016-06-13T12:48:26.520Z,84
2016-06-13T12:49:26.494Z,92
2016-06-13T12:50:26.530Z,96
2016-06-13T12:51:26.535Z,100
2016-06-13T12:52:26.572Z,92
2016-06-13T12:53:26.544Z,108
2016-06-13T12:54:26.580Z,68
2016-06-13T12:55:26.584Z,84
2016-06-13T12:56:26.602Z,96
2016-06-13T12:57:26.622Z,104
2016-06-13T12:58:27.204Z,100
2016-06-13T12:59:26.660Z,84
2016-06-13T13:00:26.648Z,68
2016-06-13T13:01:26.651Z,72
2016-06-13T13:02:26.671Z,72
2016-06-13T13:03:26.689Z,76
2016-06-13T13:04:26.677Z,72
2016-06-13T13:05:26.727Z,64
2016-06-13T13:06:26.714Z,60
2016-06-13T13:07:26.749Z,100
2016-06-13T13:08:26.737Z,92
2016-06-13T13:09:26.755Z,88
2016-06-13T13:10:26.774Z,88
2016-06-13T13:11:26.761Z,92
2016-06-13T13:12:26.874Z,96
2016-06-13T13:13:26.782Z,88
2016-06-13T13:14:26.646Z,60
2016-06-13T13:15:26.820Z,96
2016-06-13T13:16:26.823Z,96
2016-06-13T13:17:26.826Z,60
2016-06-13T13:18:26.829Z,60
2016-06-13T13:19:26.864Z,92
2016-06-13T13:20:26.851Z,88
2016-06-13T13:21:26.901Z,88
2016-06-13T13:22:26.716Z,96
2016-06-13T13:23:26.907Z,96
2016-06-13T13:24:26.894Z,84
2016-06-13T13:25:26.758Z,92
2016-06-13T13:26:26.964Z,108
2016-06-13T13:27:26.950Z,112
2016-06-13T13:28:26.954Z,92
2016-06-13T13:29:27.613Z,68
2016-06-13T13:30:26.991Z,64
2016-06-13T13:31:26.979Z,64
2016-06-13T13:32:26.997Z,68
2016-06-13T13:33:26.860Z,68
2016-06-13T13:34:27.019Z,76
2016-06-13T13:35:27.054Z,64
2016-06-13T13:36:26.869Z,72
2016-06-13T13:37:27.059Z,64
2016-06-13T13:38:27.063Z,56
2016-06-13T13:39:27.082Z,60
2016-06-13T13:40:27.116Z,60
2016-06-13T13:41:26.932Z,60
2016-06-13T13:42:27.341Z,64
2016-06-13T13:43:27.125Z,64
2016-06-13T13:44:28.034Z,88
2016-06-13T13:45:27.084Z,76
2016-06-13T13:46:27.165Z,72
2016-06-13T13:47:27.231Z,72
2016-06-13T13:48:27.171Z,68
2016-06-13T13:49:27.206Z,72
2016-06-13T13:50:27.193Z,72
2016-06-13T13:51:27.478Z,64
2016-06-13T13:52:27.216Z,64
2016-06-13T13:53:27.094Z,64
2016-06-13T13:54:27.222Z,56
2016-06-13T13:55:27.255Z,56
2016-06-13T13:56:27.242Z,56
2016-06-13T13:57:27.278Z,64
2016-06-13T13:58:27.281Z,60
2016-06-13T13:59:27.987Z,60
2016-06-13T14:00:27.302Z,64
2016-06-13T14:01:27.321Z,68
2016-06-13T14:02:27.339Z,68
2016-06-13T14:03:27.359Z,56
2016-06-13T14:04:27.362Z,52
2016-06-13T14:05:27.380Z,48
2016-06-13T14:06:27.367Z,44
2016-06-13T14:07:27.387Z,40
2016-06-13T14:08:27.390Z,44
2016-06-13T14:09:27.424Z,44
2016-06-13T14:10:27.396Z,56
2016-06-13T14:11:27.430Z,56
2016-06-13T14:12:27.417Z,48
2016-06-13T14:13:27.452Z,48
2016-06-13T14:14:28.173Z,44
2016-06-13T14:15:27.489Z,44
2016-06-13T14:16:27.492Z,604
2016-06-13T14:17:27.479Z,52
2016-06-13T14:18:27.343Z,48
2016-06-13T14:19:27.502Z,52
2016-06-13T14:20:27.519Z,48
2016-06-13T14:21:27.366Z,48
2016-06-13T14:22:27.557Z,48
2016-06-13T14:23:27.576Z,48
2016-06-13T14:24:27.564Z,48
2016-06-13T14:25:27.567Z,48
2016-06-13T14:26:27.523Z,48
2016-06-13T14:27:27.604Z,52